sensor_id;sensor_type;location;lat;lon;timestamp;temperature;humidity
20558;DHT22;10437;48.156;11.530;2022-09-02T00:00:23;15.50;99.90
20558;DHT22;10437;48.156;11.530;2022-09-02T00:15:08;14.80;99.90
20558;DHT22;10437;48.156;11.530;2022-09-02T00:17:37;14.70;99.90
20558;DHT22;10437;48.156;11.530;2022-09-02T00:20:04;14.70;99.90
20558;DHT22;10437;48.156;11.530;2022-09-02T00:24:58;14.70;99.90
20558;DHT22;10437;48.156;11.530;2022-09-02T00:34:48;14.60;99.90
20558;DHT22;10437;48.156;11.530;2022-09-02T00:39:42;14.50;99.90
20558;DHT22;10437;48.156;11.530;2022-09-02T00:49:32;14.50;99.90
20558;DHT22;10437;48.156;11.530;2022-09-02T00:52:07;14.20;99.90
20558;DHT22;10437;48.156;11.530;2022-09-02T00:54:39;14.60;99.90
20558;DHT22;10437;48.156;11.530;2022-09-02T00:57:08;13.90;99.90
20558;DHT22;10437;48.156;11.530;2022-09-02T00:59:42;15.10;99.90
20558;DHT22;10437;48.156;11.530;2022-09-02T01:02:10;14.10;99.90
20558;DHT22;10437;48.156;11.530;2022-09-02T01:04:38;14.30;99.90
20558;DHT22;10437;48.156;11.530;2022-09-02T01:07:06;14.40;99.90
20558;DHT22;10437;48.156;11.530;2022-09-02T01:09:34;14.30;99.90
20558;DHT22;10437;48.156;11.530;2022-09-02T01:12:03;14.30;99.90
20558;DHT22;10437;48.156;11.530;2022-09-02T01:17:00;14.20;99.90
20558;DHT22;10437;48.156;11.530;2022-09-02T01:19:32;14.30;99.90
20558;DHT22;10437;48.156;11.530;2022-09-02T01:22:01;14.70;99.90
20558;DHT22;10437;48.156;11.530;2022-09-02T01:24:32;14.20;99.90
20558;DHT22;10437;48.156;11.530;2022-09-02T01:29:27;14.20;99.90
20558;DHT22;10437;48.156;11.530;2022-09-02T01:34:22;14.20;99.90
20558;DHT22;10437;48.156;11.530;2022-09-02T01:39:17;14.30;99.90
20558;DHT22;10437;48.156;11.530;2022-09-02T01:51:35;14.00;99.90
20558;DHT22;10437;48.156;11.530;2022-09-02T01:56:31;14.20;99.90
20558;DHT22;10437;48.156;11.530;2022-09-02T02:11:19;14.00;99.90
20558;DHT22;10437;48.156;11.530;2022-09-02T02:13:48;14.00;99.90
20558;DHT22;10437;48.156;11.530;2022-09-02T02:21:10;13.90;99.90
20558;DHT22;10437;48.156;11.530;2022-09-02T02:30:59;13.90;99.90
20558;DHT22;10437;48.156;11.530;2022-09-02T02:33:26;13.20;99.90
20558;DHT22;10437;48.156;11.530;2022-09-02T02:35:55;13.90;99.90
20558;DHT22;10437;48.156;11.530;2022-09-02T02:48:11;13.80;99.90
20558;DHT22;10437;48.156;11.530;2022-09-02T02:50:38;13.60;99.90
20558;DHT22;10437;48.156;11.530;2022-09-02T02:53:05;13.90;99.90
20558;DHT22;10437;48.156;11.530;2022-09-02T02:55:33;13.70;99.90
20558;DHT22;10437;48.156;11.530;2022-09-02T02:58:00;13.60;99.90
20558;DHT22;10437;48.156;11.530;2022-09-02T03:00:29;13.80;99.90
20558;DHT22;10437;48.156;11.530;2022-09-02T03:02:57;13.70;99.90
20558;DHT22;10437;48.156;11.530;2022-09-02T03:05:26;13.70;99.90
20558;DHT22;10437;48.156;11.530;2022-09-02T03:10:21;13.90;99.90
20558;DHT22;10437;48.156;11.530;2022-09-02T03:12:49;13.40;99.90
20558;DHT22;10437;48.156;11.530;2022-09-02T03:15:18;13.70;99.90
20558;DHT22;10437;48.156;11.530;2022-09-02T03:17:47;12.60;99.90
20558;DHT22;10437;48.156;11.530;2022-09-02T03:20:15;13.70;99.90
20558;DHT22;10437;48.156;11.530;2022-09-02T03:22:45;13.70;99.90
20558;DHT22;10437;48.156;11.530;2022-09-02T03:25:15;13.70;99.90
20558;DHT22;10437;48.156;11.530;2022-09-02T03:30:13;13.60;99.90
20558;DHT22;10437;48.156;11.530;2022-09-02T03:35:10;13.60;99.90
20558;DHT22;10437;48.156;11.530;2022-09-02T03:40:09;13.60;99.90
20558;DHT22;10437;48.156;11.530;2022-09-02T03:42:36;13.40;99.90
20558;DHT22;10437;48.156;11.530;2022-09-02T03:45:04;13.50;99.90
20558;DHT22;10437;48.156;11.530;2022-09-02T03:47:31;13.50;99.90
20558;DHT22;10437;48.156;11.530;2022-09-02T03:57:23;13.50;99.90
20558;DHT22;10437;48.156;11.530;2022-09-02T04:14:35;13.20;99.90
20558;DHT22;10437;48.156;11.530;2022-09-02T04:24:24;13.30;99.90
20558;DHT22;10437;48.156;11.530;2022-09-02T04:31:46;13.10;99.90
20558;DHT22;10437;48.156;11.530;2022-09-02T04:39:07;12.80;99.90
20558;DHT22;10437;48.156;11.530;2022-09-02T04:41:35;13.20;99.90
20558;DHT22;10437;48.156;11.530;2022-09-02T04:44:03;13.10;99.90
20558;DHT22;10437;48.156;11.530;2022-09-02T04:46:32;13.20;99.90
20558;DHT22;10437;48.156;11.530;2022-09-02T04:49:00;13.20;99.90
20558;DHT22;10437;48.156;11.530;2022-09-02T04:56:23;13.00;99.90
20558;DHT22;10437;48.156;11.530;2022-09-02T05:01:20;12.90;99.90
20558;DHT22;10437;48.156;11.530;2022-09-02T05:03:47;12.90;99.90
20558;DHT22;10437;48.156;11.530;2022-09-02T05:06:19;13.00;99.90
20558;DHT22;10437;48.156;11.530;2022-09-02T05:08:46;13.00;99.90
20558;DHT22;10437;48.156;11.530;2022-09-02T05:11:16;13.10;99.90
20558;DHT22;10437;48.156;11.530;2022-09-02T05:13:44;13.10;99.90
20558;DHT22;10437;48.156;11.530;2022-09-02T05:16:16;13.30;99.90
20558;DHT22;10437;48.156;11.530;2022-09-02T05:23:41;13.20;99.90
20558;DHT22;10437;48.156;11.530;2022-09-02T05:26:09;13.30;99.90
20558;DHT22;10437;48.156;11.530;2022-09-02T05:28:38;13.20;99.90
20558;DHT22;10437;48.156;11.530;2022-09-02T05:31:07;13.40;99.90
20558;DHT22;10437;48.156;11.530;2022-09-02T05:33:36;13.30;99.90
20558;DHT22;10437;48.156;11.530;2022-09-02T05:36:06;13.40;99.90
20558;DHT22;10437;48.156;11.530;2022-09-02T05:38:34;13.30;99.90
20558;DHT22;10437;48.156;11.530;2022-09-02T05:41:05;13.40;99.90
20558;DHT22;10437;48.156;11.530;2022-09-02T05:43:34;13.30;99.90
20558;DHT22;10437;48.156;11.530;2022-09-02T05:46:03;13.50;99.90
20558;DHT22;10437;48.156;11.530;2022-09-02T05:51:17;13.50;99.90
20558;DHT22;10437;48.156;11.530;2022-09-02T05:56:13;13.60;99.90
20558;DHT22;10437;48.156;11.530;2022-09-02T06:01:08;13.70;99.90
20558;DHT22;10437;48.156;11.530;2022-09-02T06:06:03;12.90;99.90
20558;DHT22;10437;48.156;11.530;2022-09-02T06:08:31;13.70;99.90
20558;DHT22;10437;48.156;11.530;2022-09-02T06:13:27;13.90;99.90
20558;DHT22;10437;48.156;11.530;2022-09-02T06:15:54;16.50;99.90
20558;DHT22;10437;48.156;11.530;2022-09-02T06:18:22;14.00;99.90
20558;DHT22;10437;48.156;11.530;2022-09-02T06:20:50;13.90;99.90
20558;DHT22;10437;48.156;11.530;2022-09-02T06:25:45;14.00;99.90
20558;DHT22;10437;48.156;11.530;2022-09-02T06:28:13;14.10;99.90
20558;DHT22;10437;48.156;11.530;2022-09-02T06:30:43;14.20;99.90
20558;DHT22;10437;48.156;11.530;2022-09-02T06:33:11;14.20;99.90
20558;DHT22;10437;48.156;11.530;2022-09-02T06:35:40;14.30;99.90
20558;DHT22;10437;48.156;11.530;2022-09-02T06:38:09;14.30;99.90
20558;DHT22;10437;48.156;11.530;2022-09-02T06:40:43;15.70;99.90
20558;DHT22;10437;48.156;11.530;2022-09-02T06:43:11;14.40;99.90
20558;DHT22;10437;48.156;11.530;2022-09-02T06:45:38;14.50;99.90
20558;DHT22;10437;48.156;11.530;2022-09-02T06:50:37;14.70;99.90
20558;DHT22;10437;48.156;11.530;2022-09-02T06:55:34;15.10;99.90
20558;DHT22;10437;48.156;11.530;2022-09-02T06:58:01;15.50;99.90
20558;DHT22;10437;48.156;11.530;2022-09-02T07:00:29;16.00;99.90
20558;DHT22;10437;48.156;11.530;2022-09-02T07:05:42;16.60;99.90
20558;DHT22;10437;48.156;11.530;2022-09-02T07:08:09;16.80;99.90
20558;DHT22;10437;48.156;11.530;2022-09-02T07:10:36;17.60;99.90
20558;DHT22;10437;48.156;11.530;2022-09-02T07:15:31;17.90;99.90
20558;DHT22;10437;48.156;11.530;2022-09-02T07:17:59;18.40;99.90
20558;DHT22;10437;48.156;11.530;2022-09-02T07:22:54;18.50;99.90
20558;DHT22;10437;48.156;11.530;2022-09-02T07:40:08;20.70;99.90
20558;DHT22;10437;48.156;11.530;2022-09-02T07:42:36;20.90;99.90
20558;DHT22;10437;48.156;11.530;2022-09-02T07:45:03;21.20;99.90
20558;DHT22;10437;48.156;11.530;2022-09-02T07:57:21;21.30;99.90
20558;DHT22;10437;48.156;11.530;2022-09-02T07:59:49;21.60;99.90
20558;DHT22;10437;48.156;11.530;2022-09-02T08:02:16;22.30;99.90
20558;DHT22;10437;48.156;11.530;2022-09-02T08:12:05;23.00;98.30
20558;DHT22;10437;48.156;11.530;2022-09-02T08:14:33;23.00;98.70
20558;DHT22;10437;48.156;11.530;2022-09-02T08:17:00;23.20;97.40
20558;DHT22;10437;48.156;11.530;2022-09-02T08:31:44;24.30;93.60
20558;DHT22;10437;48.156;11.530;2022-09-02T08:34:12;24.50;99.90
20558;DHT22;10437;48.156;11.530;2022-09-02T08:39:08;24.60;94.50
20558;DHT22;10437;48.156;11.530;2022-09-02T08:41:43;23.80;87.90
20558;DHT22;10437;48.156;11.530;2022-09-02T08:44:16;23.70;86.50
20558;DHT22;10437;48.156;11.530;2022-09-02T08:46:48;23.80;86.40
20558;DHT22;10437;48.156;11.530;2022-09-02T08:49:21;23.50;86.00
20558;DHT22;10437;48.156;11.530;2022-09-02T08:51:50;23.50;84.30
20558;DHT22;10437;48.156;11.530;2022-09-02T08:54:21;23.50;90.70
20558;DHT22;10437;48.156;11.530;2022-09-02T08:59:21;23.20;85.10
20558;DHT22;10437;48.156;11.530;2022-09-02T09:01:55;23.10;91.50
20558;DHT22;10437;48.156;11.530;2022-09-02T09:04:37;23.50;83.60
20558;DHT22;10437;48.156;11.530;2022-09-02T09:07:19;22.80;82.50
20558;DHT22;10437;48.156;11.530;2022-09-02T09:10:00;22.90;84.60
20558;DHT22;10437;48.156;11.530;2022-09-02T09:12:36;23.30;90.00
20558;DHT22;10437;48.156;11.530;2022-09-02T09:15:12;23.40;83.30
20558;DHT22;10437;48.156;11.530;2022-09-02T09:17:49;22.90;85.30
20558;DHT22;10437;48.156;11.530;2022-09-02T09:20:20;23.00;88.40
20558;DHT22;10437;48.156;11.530;2022-09-02T09:22:49;24.00;89.70
20558;DHT22;10437;48.156;11.530;2022-09-02T09:25:17;22.80;85.30
20558;DHT22;10437;48.156;11.530;2022-09-02T09:27:44;22.60;90.40
20558;DHT22;10437;48.156;11.530;2022-09-02T09:30:12;22.50;90.80
20558;DHT22;10437;48.156;11.530;2022-09-02T09:32:42;22.70;90.20
20558;DHT22;10437;48.156;11.530;2022-09-02T09:35:12;22.10;90.60
20558;DHT22;10437;48.156;11.530;2022-09-02T09:37:40;21.90;94.80
20558;DHT22;10437;48.156;11.530;2022-09-02T09:40:28;21.80;90.10
20558;DHT22;10437;48.156;11.530;2022-09-02T09:42:57;21.60;92.50
20558;DHT22;10437;48.156;11.530;2022-09-02T09:45:30;21.40;91.30
20558;DHT22;10437;48.156;11.530;2022-09-02T09:51:13;20.90;92.90
20558;DHT22;10437;48.156;11.530;2022-09-02T09:56:31;20.70;94.00
20558;DHT22;10437;48.156;11.530;2022-09-02T10:01:29;20.60;93.90
20558;DHT22;10437;48.156;11.530;2022-09-02T10:03:57;20.60;94.30
20558;DHT22;10437;48.156;11.530;2022-09-02T10:06:38;20.80;94.20
20558;DHT22;10437;48.156;11.530;2022-09-02T10:09:23;20.90;93.90
20558;DHT22;10437;48.156;11.530;2022-09-02T10:11:54;20.80;94.10
20558;DHT22;10437;48.156;11.530;2022-09-02T10:14:21;20.70;93.90
20558;DHT22;10437;48.156;11.530;2022-09-02T10:16:58;20.50;96.00
20558;DHT22;10437;48.156;11.530;2022-09-02T10:19:34;20.80;94.20
20558;DHT22;10437;48.156;11.530;2022-09-02T10:22:26;20.70;91.90
20558;DHT22;10437;48.156;11.530;2022-09-02T10:25:06;20.70;94.10
20558;DHT22;10437;48.156;11.530;2022-09-02T10:27:42;20.70;94.20
20558;DHT22;10437;48.156;11.530;2022-09-02T10:30:15;19.90;94.40
20558;DHT22;10437;48.156;11.530;2022-09-02T10:33:07;20.30;94.70
20558;DHT22;10437;48.156;11.530;2022-09-02T10:35:41;20.60;94.70
20558;DHT22;10437;48.156;11.530;2022-09-02T10:38:25;20.40;94.70
20558;DHT22;10437;48.156;11.530;2022-09-02T10:40:56;20.60;94.60
20558;DHT22;10437;48.156;11.530;2022-09-02T10:43:37;20.60;95.40
20558;DHT22;10437;48.156;11.530;2022-09-02T10:48:46;20.90;98.90
20558;DHT22;10437;48.156;11.530;2022-09-02T10:51:22;21.20;93.30
20558;DHT22;10437;48.156;11.530;2022-09-02T10:54:07;21.10;93.40
20558;DHT22;10437;48.156;11.530;2022-09-02T10:56:42;21.40;93.30
20558;DHT22;10437;48.156;11.530;2022-09-02T10:59:15;21.60;92.30
20558;DHT22;10437;48.156;11.530;2022-09-02T11:01:47;21.80;92.60
20558;DHT22;10437;48.156;11.530;2022-09-02T11:04:19;22.00;91.80
20558;DHT22;10437;48.156;11.530;2022-09-02T11:06:48;22.10;91.90
20558;DHT22;10437;48.156;11.530;2022-09-02T11:09:27;22.40;91.80
20558;DHT22;10437;48.156;11.530;2022-09-02T11:11:58;22.90;92.20
20558;DHT22;10437;48.156;11.530;2022-09-02T11:14:32;23.20;90.90
20558;DHT22;10437;48.156;11.530;2022-09-02T11:17:04;23.30;90.80
20558;DHT22;10437;48.156;11.530;2022-09-02T11:19:38;23.50;90.20
20558;DHT22;10437;48.156;11.530;2022-09-02T11:22:18;23.50;90.10
20558;DHT22;10437;48.156;11.530;2022-09-02T11:24:50;23.50;89.60
20558;DHT22;10437;48.156;11.530;2022-09-02T11:27:23;26.30;90.70
20558;DHT22;10437;48.156;11.530;2022-09-02T11:30:00;24.00;91.20
20558;DHT22;10437;48.156;11.530;2022-09-02T11:32:32;24.10;89.80
20558;DHT22;10437;48.156;11.530;2022-09-02T11:35:04;24.20;89.50
20558;DHT22;10437;48.156;11.530;2022-09-02T11:37:38;24.30;87.00
20558;DHT22;10437;48.156;11.530;2022-09-02T11:40:10;23.80;89.80
20558;DHT22;10437;48.156;11.530;2022-09-02T11:42:50;24.40;86.90
20558;DHT22;10437;48.156;11.530;2022-09-02T11:45:31;24.40;86.30
20558;DHT22;10437;48.156;11.530;2022-09-02T11:51:07;24.20;85.30
20558;DHT22;10437;48.156;11.530;2022-09-02T11:53:37;24.10;86.00
20558;DHT22;10437;48.156;11.530;2022-09-02T11:56:10;24.10;86.00
20558;DHT22;10437;48.156;11.530;2022-09-02T11:58:40;23.80;85.60
20558;DHT22;10437;48.156;11.530;2022-09-02T12:01:20;24.30;80.30
20558;DHT22;10437;48.156;11.530;2022-09-02T12:03:51;24.40;85.20
20558;DHT22;10437;48.156;11.530;2022-09-02T12:06:19;24.40;84.60
20558;DHT22;10437;48.156;11.530;2022-09-02T12:09:15;24.70;80.00
20558;DHT22;10437;48.156;11.530;2022-09-02T12:12:01;24.70;85.30
20558;DHT22;10437;48.156;11.530;2022-09-02T12:15:08;24.60;79.30
20558;DHT22;10437;48.156;11.530;2022-09-02T12:21:11;24.90;79.30
20558;DHT22;10437;48.156;11.530;2022-09-02T12:24:11;24.80;79.40
20558;DHT22;10437;48.156;11.530;2022-09-02T12:29:42;25.00;83.10
20558;DHT22;10437;48.156;11.530;2022-09-02T12:34:53;25.00;77.00
20558;DHT22;10437;48.156;11.530;2022-09-02T12:37:49;25.00;77.60
20558;DHT22;10437;48.156;11.530;2022-09-02T12:40:23;25.20;81.40
20558;DHT22;10437;48.156;11.530;2022-09-02T12:42:52;25.40;82.10
20558;DHT22;10437;48.156;11.530;2022-09-02T12:45:25;26.40;82.50
20558;DHT22;10437;48.156;11.530;2022-09-02T12:47:57;25.30;81.00
20558;DHT22;10437;48.156;11.530;2022-09-02T12:50:27;25.40;82.10
20558;DHT22;10437;48.156;11.530;2022-09-02T12:53:28;25.40;82.50
20558;DHT22;10437;48.156;11.530;2022-09-02T12:55:58;25.60;80.80
20558;DHT22;10437;48.156;11.530;2022-09-02T12:58:31;25.80;80.20
20558;DHT22;10437;48.156;11.530;2022-09-02T13:01:09;25.30;81.50
20558;DHT22;10437;48.156;11.530;2022-09-02T13:07:24;25.50;79.10
20558;DHT22;10437;48.156;11.530;2022-09-02T13:13:18;25.20;80.30
20558;DHT22;10437;48.156;11.530;2022-09-02T13:16:14;25.40;80.90
20558;DHT22;10437;48.156;11.530;2022-09-02T13:19:26;25.40;75.50
20558;DHT22;10437;48.156;11.530;2022-09-02T13:25:42;25.20;82.50
20558;DHT22;10437;48.156;11.530;2022-09-02T13:31:18;25.50;81.30
20558;DHT22;10437;48.156;11.530;2022-09-02T13:36:23;25.40;80.60
20558;DHT22;10437;48.156;11.530;2022-09-02T13:41:30;25.20;80.60
20558;DHT22;10437;48.156;11.530;2022-09-02T13:44:05;25.50;84.70
20558;DHT22;10437;48.156;11.530;2022-09-02T13:46:45;25.10;80.50
20558;DHT22;10437;48.156;11.530;2022-09-02T13:49:21;25.20;90.30
20558;DHT22;10437;48.156;11.530;2022-09-02T13:51:51;25.10;81.40
20558;DHT22;10437;48.156;11.530;2022-09-02T13:54:29;25.10;76.60
20558;DHT22;10437;48.156;11.530;2022-09-02T13:56:57;25.00;81.40
20558;DHT22;10437;48.156;11.530;2022-09-02T13:59:32;24.50;88.00
20558;DHT22;10437;48.156;11.530;2022-09-02T14:02:15;25.00;82.30
20558;DHT22;10437;48.156;11.530;2022-09-02T14:09:38;24.90;81.30
20558;DHT22;10437;48.156;11.530;2022-09-02T14:12:06;24.30;81.80
20558;DHT22;10437;48.156;11.530;2022-09-02T14:14:33;25.00;87.20
20558;DHT22;10437;48.156;11.530;2022-09-02T14:17:19;24.40;75.70
20558;DHT22;10437;48.156;11.530;2022-09-02T14:22:23;24.60;76.90
20558;DHT22;10437;48.156;11.530;2022-09-02T14:27:18;24.40;90.70
20558;DHT22;10437;48.156;11.530;2022-09-02T14:29:49;24.60;82.30
20558;DHT22;10437;48.156;11.530;2022-09-02T14:32:22;24.60;82.30
20558;DHT22;10437;48.156;11.530;2022-09-02T14:35:08;23.60;83.10
20558;DHT22;10437;48.156;11.530;2022-09-02T14:37:50;24.40;83.90
20558;DHT22;10437;48.156;11.530;2022-09-02T14:40:31;24.30;82.00
20558;DHT22;10437;48.156;11.530;2022-09-02T14:42:59;24.50;80.90
20558;DHT22;10437;48.156;11.530;2022-09-02T14:45:28;24.30;95.10
20558;DHT22;10437;48.156;11.530;2022-09-02T14:47:59;24.30;82.40
20558;DHT22;10437;48.156;11.530;2022-09-02T14:50:28;24.10;81.40
20558;DHT22;10437;48.156;11.530;2022-09-02T14:53:00;24.20;81.10
20558;DHT22;10437;48.156;11.530;2022-09-02T14:55:47;24.00;75.90
20558;DHT22;10437;48.156;11.530;2022-09-02T14:58:17;24.10;81.70
20558;DHT22;10437;48.156;11.530;2022-09-02T15:00:46;23.80;81.90
20558;DHT22;10437;48.156;11.530;2022-09-02T15:03:18;24.00;83.10
20558;DHT22;10437;48.156;11.530;2022-09-02T15:08:13;23.60;80.60
20558;DHT22;10437;48.156;11.530;2022-09-02T15:10:41;23.50;83.00
20558;DHT22;10437;48.156;11.530;2022-09-02T15:13:10;23.20;82.70
20558;DHT22;10437;48.156;11.530;2022-09-02T15:20:33;22.70;84.50
20558;DHT22;10437;48.156;11.530;2022-09-02T15:25:27;22.60;84.60
20558;DHT22;10437;48.156;11.530;2022-09-02T15:37:48;21.90;87.50
20558;DHT22;10437;48.156;11.530;2022-09-02T15:42:42;21.70;90.30
20558;DHT22;10437;48.156;11.530;2022-09-02T15:47:36;21.90;85.30
20558;DHT22;10437;48.156;11.530;2022-09-02T15:50:04;21.90;87.60
20558;DHT22;10437;48.156;11.530;2022-09-02T15:52:32;21.70;87.40
20558;DHT22;10437;48.156;11.530;2022-09-02T16:12:12;21.30;88.60
20558;DHT22;10437;48.156;11.530;2022-09-02T16:17:07;21.20;86.60
20558;DHT22;10437;48.156;11.530;2022-09-02T16:29:24;21.00;90.10
20558;DHT22;10437;48.156;11.530;2022-09-02T16:36:48;21.10;90.40
20558;DHT22;10437;48.156;11.530;2022-09-02T16:39:16;20.80;92.10
20558;DHT22;10437;48.156;11.530;2022-09-02T16:41:45;20.90;90.60
20558;DHT22;10437;48.156;11.530;2022-09-02T16:44:14;20.90;90.70
20558;DHT22;10437;48.156;11.530;2022-09-02T16:46:43;20.90;90.50
20558;DHT22;10437;48.156;11.530;2022-09-02T16:49:12;20.70;90.20
20558;DHT22;10437;48.156;11.530;2022-09-02T16:51:43;20.70;90.90
20558;DHT22;10437;48.156;11.530;2022-09-02T16:54:11;20.50;90.60
20558;DHT22;10437;48.156;11.530;2022-09-02T16:59:07;20.70;90.70
20558;DHT22;10437;48.156;11.530;2022-09-02T17:01:35;20.30;91.30
20558;DHT22;10437;48.156;11.530;2022-09-02T17:11:27;20.20;96.70
20558;DHT22;10437;48.156;11.530;2022-09-02T17:13:56;20.40;90.70
20558;DHT22;10437;48.156;11.530;2022-09-02T17:16:25;23.10;91.80
20558;DHT22;10437;48.156;11.530;2022-09-02T17:21:23;20.30;91.00
20558;DHT22;10437;48.156;11.530;2022-09-02T17:23:51;20.00;91.10
20558;DHT22;10437;48.156;11.530;2022-09-02T17:26:20;20.30;94.00
20558;DHT22;10437;48.156;11.530;2022-09-02T17:28:47;20.10;90.80
20558;DHT22;10437;48.156;11.530;2022-09-02T17:31:20;20.10;99.90
20558;DHT22;10437;48.156;11.530;2022-09-02T17:33:47;20.10;91.30
20558;DHT22;10437;48.156;11.530;2022-09-02T17:38:44;20.40;92.60
20558;DHT22;10437;48.156;11.530;2022-09-02T17:41:11;20.00;93.10
20558;DHT22;10437;48.156;11.530;2022-09-02T17:53:46;19.70;92.70
20558;DHT22;10437;48.156;11.530;2022-09-02T17:56:38;19.50;90.40
20558;DHT22;10437;48.156;11.530;2022-09-02T17:59:18;19.80;92.90
20558;DHT22;10437;48.156;11.530;2022-09-02T18:01:53;19.80;93.20
20558;DHT22;10437;48.156;11.530;2022-09-02T18:04:32;19.80;93.30
20558;DHT22;10437;48.156;11.530;2022-09-02T18:07:08;19.60;97.70
20558;DHT22;10437;48.156;11.530;2022-09-02T18:09:38;19.60;93.60
20558;DHT22;10437;48.156;11.530;2022-09-02T18:14:35;19.40;96.10
20558;DHT22;10437;48.156;11.530;2022-09-02T18:17:14;19.50;93.90
20558;DHT22;10437;48.156;11.530;2022-09-02T18:19:54;19.50;93.60
20558;DHT22;10437;48.156;11.530;2022-09-02T18:22:45;19.80;97.80
20558;DHT22;10437;48.156;11.530;2022-09-02T18:25:28;19.50;94.20
20558;DHT22;10437;48.156;11.530;2022-09-02T18:28:09;19.40;94.40
20558;DHT22;10437;48.156;11.530;2022-09-02T18:30:42;19.50;95.10
20558;DHT22;10437;48.156;11.530;2022-09-02T18:33:21;19.70;94.90
20558;DHT22;10437;48.156;11.530;2022-09-02T18:35:59;19.60;99.90
20558;DHT22;10437;48.156;11.530;2022-09-02T18:38:37;19.40;94.70
20558;DHT22;10437;48.156;11.530;2022-09-02T18:41:19;19.30;94.90
20558;DHT22;10437;48.156;11.530;2022-09-02T18:44:02;19.40;92.80
20558;DHT22;10437;48.156;11.530;2022-09-02T18:46:38;19.10;95.80
20558;DHT22;10437;48.156;11.530;2022-09-02T18:49:07;19.40;95.10
20558;DHT22;10437;48.156;11.530;2022-09-02T18:51:39;19.30;95.20
20558;DHT22;10437;48.156;11.530;2022-09-02T18:54:14;19.10;95.30
20558;DHT22;10437;48.156;11.530;2022-09-02T18:56:48;19.70;95.70
20558;DHT22;10437;48.156;11.530;2022-09-02T18:59:19;19.20;99.90
20558;DHT22;10437;48.156;11.530;2022-09-02T19:01:48;19.10;95.70
20558;DHT22;10437;48.156;11.530;2022-09-02T19:04:22;19.00;96.60
20558;DHT22;10437;48.156;11.530;2022-09-02T19:06:51;19.10;96.90
20558;DHT22;10437;48.156;11.530;2022-09-02T19:09:40;19.00;96.40
20558;DHT22;10437;48.156;11.530;2022-09-02T19:12:08;18.90;96.40
20558;DHT22;10437;48.156;11.530;2022-09-02T19:14:37;18.90;96.40
20558;DHT22;10437;48.156;11.530;2022-09-02T19:22:03;19.30;97.50
20558;DHT22;10437;48.156;11.530;2022-09-02T19:24:34;19.00;97.20
20558;DHT22;10437;48.156;11.530;2022-09-02T19:27:04;18.70;96.70
20558;DHT22;10437;48.156;11.530;2022-09-02T19:29:36;18.70;96.50
20558;DHT22;10437;48.156;11.530;2022-09-02T19:34:35;18.60;96.40
20558;DHT22;10437;48.156;11.530;2022-09-02T19:39:30;18.50;95.70
20558;DHT22;10437;48.156;11.530;2022-09-02T19:46:54;18.10;97.40
20558;DHT22;10437;48.156;11.530;2022-09-02T19:56:44;17.80;99.40
20558;DHT22;10437;48.156;11.530;2022-09-02T19:59:11;18.40;96.70
20558;DHT22;10437;48.156;11.530;2022-09-02T20:04:07;18.20;97.80
20558;DHT22;10437;48.156;11.530;2022-09-02T20:16:25;18.10;99.90
20558;DHT22;10437;48.156;11.530;2022-09-02T20:21:23;18.30;98.40
20558;DHT22;10437;48.156;11.530;2022-09-02T20:26:26;17.90;98.40
20558;DHT22;10437;48.156;11.530;2022-09-02T20:29:23;17.90;96.30
20558;DHT22;10437;48.156;11.530;2022-09-02T20:32:03;16.30;97.90
20558;DHT22;10437;48.156;11.530;2022-09-02T20:34:47;17.90;96.20
20558;DHT22;10437;48.156;11.530;2022-09-02T20:37:26;17.80;98.40
20558;DHT22;10437;48.156;11.530;2022-09-02T20:40:24;17.90;96.30
20558;DHT22;10437;48.156;11.530;2022-09-02T20:45:53;18.20;99.00
20558;DHT22;10437;48.156;11.530;2022-09-02T20:48:32;18.00;99.10
20558;DHT22;10437;48.156;11.530;2022-09-02T20:51:08;17.70;99.20
20558;DHT22;10437;48.156;11.530;2022-09-02T20:53:54;17.70;99.60
20558;DHT22;10437;48.156;11.530;2022-09-02T20:56:28;17.60;99.60
20558;DHT22;10437;48.156;11.530;2022-09-02T20:59:02;17.70;99.90
20558;DHT22;10437;48.156;11.530;2022-09-02T21:01:34;17.50;99.90
20558;DHT22;10437;48.156;11.530;2022-09-02T21:04:05;17.30;99.90
20558;DHT22;10437;48.156;11.530;2022-09-02T21:06:36;17.60;99.90
20558;DHT22;10437;48.156;11.530;2022-09-02T21:09:14;17.70;99.90
20558;DHT22;10437;48.156;11.530;2022-09-02T21:11:45;17.70;99.90
20558;DHT22;10437;48.156;11.530;2022-09-02T21:14:19;17.40;99.90
20558;DHT22;10437;48.156;11.530;2022-09-02T21:16:51;17.60;99.90
20558;DHT22;10437;48.156;11.530;2022-09-02T21:19:26;17.80;99.90
20558;DHT22;10437;48.156;11.530;2022-09-02T21:22:00;17.70;99.90
20558;DHT22;10437;48.156;11.530;2022-09-02T21:24:35;17.80;99.90
20558;DHT22;10437;48.156;11.530;2022-09-02T21:27:10;17.60;99.90
20558;DHT22;10437;48.156;11.530;2022-09-02T21:29:43;16.90;99.90
20558;DHT22;10437;48.156;11.530;2022-09-02T21:32:15;18.20;99.90
20558;DHT22;10437;48.156;11.530;2022-09-02T21:34:49;17.80;99.90
20558;DHT22;10437;48.156;11.530;2022-09-02T21:37:19;17.60;99.90
20558;DHT22;10437;48.156;11.530;2022-09-02T21:39:54;17.60;99.90
20558;DHT22;10437;48.156;11.530;2022-09-02T21:42:28;17.50;99.90
20558;DHT22;10437;48.156;11.530;2022-09-02T21:45:06;18.10;99.90
20558;DHT22;10437;48.156;11.530;2022-09-02T21:47:40;17.70;99.90
20558;DHT22;10437;48.156;11.530;2022-09-02T21:50:11;17.40;99.90
20558;DHT22;10437;48.156;11.530;2022-09-02T21:52:51;17.60;99.90
20558;DHT22;10437;48.156;11.530;2022-09-02T21:55:34;17.80;99.90
20558;DHT22;10437;48.156;11.530;2022-09-02T21:58:20;17.30;99.00
20558;DHT22;10437;48.156;11.530;2022-09-02T22:00:59;17.20;99.90
20558;DHT22;10437;48.156;11.530;2022-09-02T22:03:32;17.40;99.90
20558;DHT22;10437;48.156;11.530;2022-09-02T22:06:08;17.40;99.90
20558;DHT22;10437;48.156;11.530;2022-09-02T22:08:40;17.50;99.90
20558;DHT22;10437;48.156;11.530;2022-09-02T22:11:17;17.20;99.90
20558;DHT22;10437;48.156;11.530;2022-09-02T22:16:22;17.70;99.90
20558;DHT22;10437;48.156;11.530;2022-09-02T22:18:53;17.10;99.90
20558;DHT22;10437;48.156;11.530;2022-09-02T22:21:30;17.50;99.90
20558;DHT22;10437;48.156;11.530;2022-09-02T22:26:37;17.50;99.90
20558;DHT22;10437;48.156;11.530;2022-09-02T22:29:09;17.40;99.90
20558;DHT22;10437;48.156;11.530;2022-09-02T22:31:40;17.40;99.90
20558;DHT22;10437;48.156;11.530;2022-09-02T22:34:10;17.40;99.90
20558;DHT22;10437;48.156;11.530;2022-09-02T22:36:47;17.50;99.90
20558;DHT22;10437;48.156;11.530;2022-09-02T22:39:17;17.20;99.90